Bremerton, WA (98310)

7:49 AM PDT on August 27, 2016 (GMT -0700)
Sunset Illahee | | Change Station

Elev 325 ft 47.61 °N, 122.61 °W | Updated 1 minute ago

Overcast
Overcast
62.4 °F
Feels Like 62.4 °F
N
2.0
Wind Variable Wind from ENE

Today
High -- | Low -- °F
--% Chance of Precip.
Yesterday
High -- | Low -- °F
Precip. -- in
Pressure 29.86 in
Visibility 10.0 miles
Clouds Overcast 1000 ft
Dew Point 56 °F
Humidity 80%
Rainfall 0.00 in
Snow Depth Not available.
6:23 AM 7:59 PM
Waning Crescent, 24% visible
METAR KPWT 271435Z AUTO 20011G19KT 10SM OVC010 15/13 A2986 RMK AO1
Pressure 29.86 in
Visibility 10.0 miles
Clouds Overcast 1000 ft
Dew Point 56 °F
Humidity 80%
Rainfall 0.00 in
Snow Depth Not available.
6:23 AM 7:59 PM
Waning Crescent, 24% visible
METAR KPWT 271435Z AUTO 20011G19KT 10SM OVC010 15/13 A2986 RMK AO1

10-Day Weather Forecast

Almanac

Astronomy

Aug. 27, 2016 Rise Set
Actual Time
Civil Twilight
Nautical Twilight
Astronomical Twilight
Moon
Length of Visible Light
Length of Day
Tomorrow will be .
, % of the Moon is Illuminated

Today's Extremes

State Highs State Lows

Community

WunderPhotos

Upload Photos

1,935,344 photos uploaded!

WunderBlog® & News

Nearby

Air Quality

  Air Quality AQ Index Pollutant
Not available.

Snow Depth

Station Depth Elevation

Earthquake Activity

City Distance Mag. Time & Date
Minimum magnitude displayed is 2.5.

Coastal Water Temperatures

Place Temperature

Stations

Nearby Weather Stations

Station Location Temp. Windchill Dew Point Humidity Wind Precip. Elev Updated Type
                   

Watches & Warnings

There are currently no watches in effect.